createdAt,value
2019-01-03T00:02:49.052Z,38.2
2019-01-03T00:07:54.578Z,50.4
2019-01-03T00:18:03.896Z,56.7
2019-01-03T00:23:09.905Z,39.3
2019-01-03T00:33:20.228Z,36.1
2019-01-03T00:38:25.509Z,36.8
2019-01-03T00:43:31.100Z,49.7
2019-01-03T00:48:36.275Z,52.7
2019-01-03T00:53:41.896Z,49.6
2019-01-03T00:58:47.608Z,76.5
2019-01-03T01:03:52.620Z,51.7
2019-01-03T01:08:56.867Z,50.4
2019-01-03T01:14:01.936Z,67.6
2019-01-03T01:19:07.386Z,78.7
2019-01-03T01:24:12.548Z,54.8
2019-01-03T01:29:16.975Z,54.3
2019-01-03T01:34:22.652Z,66
2019-01-03T01:39:28.147Z,48.5
2019-01-03T01:44:33.691Z,52.1
2019-01-03T01:49:39.349Z,47.1
2019-01-03T01:54:44.380Z,50.5
2019-01-03T01:59:50.052Z,48.7
2019-01-03T02:04:55.636Z,67
2019-01-03T02:10:00.801Z,46.2
2019-01-03T02:15:06.295Z,65.1
2019-01-03T02:20:11.526Z,73.8
2019-01-03T02:25:17.160Z,65.6
2019-01-03T02:30:22.917Z,65.2
2019-01-03T02:35:27.884Z,64.1
2019-01-03T02:40:33.270Z,45.4
2019-01-03T02:45:39.076Z,53.3
2019-01-03T02:50:44.917Z,65.5
2019-01-03T02:55:49.936Z,71.3
2019-01-03T03:00:56.243Z,47.4
2019-01-03T03:06:01.124Z,57.7
2019-01-03T03:11:06.816Z,66
2019-01-03T03:16:12.219Z,44.7
2019-01-03T03:21:17.704Z,67.2
2019-01-03T03:26:22.790Z,72.9
2019-01-03T03:31:28.764Z,47.5
2019-01-03T03:36:34.174Z,74.6
2019-01-03T03:41:39.216Z,46.7
2019-01-03T03:46:45.124Z,51.6
2019-01-03T03:51:50.916Z,67.9
2019-01-03T03:56:56.136Z,44.5
2019-01-03T04:02:01.272Z,77.4
2019-01-03T04:07:06.674Z,43.9
2019-01-03T04:12:11.970Z,44.6
2019-01-03T04:17:17.315Z,41.9
2019-01-03T04:27:27.104Z,40
2019-01-03T04:32:32.772Z,46.1
2019-01-03T04:37:38.559Z,41.9
2019-01-03T04:42:43.748Z,67.4
2019-01-03T04:47:48.866Z,51.5
2019-01-03T04:52:54.836Z,47.5
2019-01-03T04:58:00.505Z,34.3
2019-01-03T05:03:06.844Z,34
2019-01-03T05:08:11.951Z,33.4
2019-01-03T05:13:17.200Z,33
2019-01-03T05:18:22.867Z,32.8
2019-01-03T05:23:28.179Z,32.8
2019-01-03T05:28:32.821Z,33.1
2019-01-03T05:33:38.019Z,32.8
2019-01-03T05:38:43.597Z,43
2019-01-03T05:43:49.520Z,49.9
2019-01-03T05:48:54.831Z,42.6
2019-01-03T05:54:00.729Z,41.6
2019-01-03T05:59:05.681Z,42.6
2019-01-03T06:04:10.848Z,32.5
2019-01-03T06:09:15.882Z,46.5
2019-01-03T06:14:22.032Z,46.1
2019-01-03T06:19:27.621Z,32.9
2019-01-03T06:24:33.505Z,32.8
2019-01-03T06:29:39.287Z,33
2019-01-03T06:34:44.992Z,33.2
2019-01-03T06:39:48.795Z,33.1
2019-01-03T06:44:54.949Z,33.1
2019-01-03T06:50:00.701Z,33.1
2019-01-03T07:00:11.187Z,42.8
2019-01-03T07:05:17.151Z,45.5
2019-01-03T07:10:22.720Z,44
2019-01-03T07:15:27.873Z,43.2
2019-01-03T07:20:33.112Z,43.1
2019-01-03T07:25:38.326Z,43
2019-01-03T07:30:43.634Z,44.9
2019-01-03T07:35:48.832Z,46.5
2019-01-03T07:40:54.679Z,47.7
2019-01-03T07:46:00.506Z,47.4
2019-01-03T07:51:04.947Z,47.7
2019-01-03T07:56:09.993Z,47.1
2019-01-03T08:01:15.672Z,49
2019-01-03T08:06:21.704Z,50.2
2019-01-03T08:11:27.011Z,50.4
2019-01-03T08:16:32.668Z,52.6
2019-01-03T08:21:37.915Z,50.2
2019-01-03T08:26:43.115Z,52.5
2019-01-03T08:31:49.374Z,52.5
2019-01-03T08:36:55.036Z,52.5
2019-01-03T08:42:00.708Z,52.6
2019-01-03T08:47:06.085Z,52.3
2019-01-03T08:52:11.026Z,51.2
2019-01-03T08:57:16.321Z,47.5
2019-01-03T09:02:21.318Z,49.1
2019-01-03T09:07:26.271Z,48.8
2019-01-03T09:12:31.302Z,48.7
2019-01-03T09:17:36.416Z,47.9
2019-01-03T09:22:41.610Z,47.4
2019-01-03T09:27:46.817Z,46.5
2019-01-03T09:32:52.637Z,47.4
2019-01-03T09:37:57.975Z,47.3
2019-01-03T09:43:01.472Z,47.1
2019-01-03T09:48:06.437Z,47.9
2019-01-03T09:53:11.361Z,48.1
2019-01-03T09:58:16.532Z,49.7
2019-01-03T10:03:21.962Z,49.4
2019-01-03T10:08:27.072Z,49.8
2019-01-03T10:13:32.852Z,49.5
2019-01-03T10:18:37.957Z,50
2019-01-03T10:23:43.073Z,49.5
2019-01-03T10:28:48.389Z,47.8
2019-01-03T10:33:53.488Z,47.9
2019-01-03T10:38:59.423Z,49
2019-01-03T10:44:05.089Z,50
2019-01-03T10:49:10.763Z,49.8
2019-01-03T10:59:20.428Z,61.7
2019-01-03T11:04:26.051Z,56
2019-01-03T11:14:35.092Z,52.6
2019-01-03T11:19:41.387Z,54.9
2019-01-03T11:24:46.757Z,52.7
2019-01-03T11:29:52.082Z,52.6
2019-01-03T11:34:58.105Z,53.7
2019-01-03T11:40:03.799Z,53.3
2019-01-03T11:45:09.419Z,54.1
2019-01-03T11:50:15.012Z,55.3
2019-01-03T11:55:20.711Z,54.1
2019-01-03T12:00:25.809Z,40.4
2019-01-03T12:05:30.728Z,46.3
2019-01-03T12:10:35.137Z,45
2019-01-03T12:15:38.974Z,44.6
2019-01-03T12:20:44.408Z,47.4
2019-01-03T12:30:53.097Z,46
2019-01-03T12:35:58.208Z,43.2
2019-01-03T12:41:04.151Z,45
2019-01-03T12:46:09.798Z,53.4
2019-01-03T12:51:15.755Z,53.6
2019-01-03T12:56:21.146Z,54.7
2019-01-03T13:01:27.100Z,48
2019-01-03T13:06:32.762Z,48.1
2019-01-03T13:11:39.039Z,48.6
2019-01-03T13:16:44.416Z,46.6
2019-01-03T13:21:50.139Z,50.1
2019-01-03T13:26:55.740Z,46.3
2019-01-03T13:32:01.721Z,45.1
2019-01-03T13:37:06.836Z,48.2
2019-01-03T13:42:12.082Z,50
2019-01-03T13:47:17.183Z,46.3
2019-01-03T13:52:22.688Z,47.6
2019-01-03T13:57:28.674Z,49.6
2019-01-03T14:02:34.070Z,54.9
2019-01-03T14:07:40.182Z,44.9
2019-01-03T14:12:45.856Z,50.1
2019-01-03T14:17:51.184Z,52.1
2019-01-03T14:22:56.407Z,48.7
2019-01-03T14:28:01.985Z,54.1
2019-01-03T14:33:07.955Z,56.7
2019-01-03T14:38:13.269Z,51.5
2019-01-03T14:43:17.472Z,56
2019-01-03T14:48:22.826Z,59.1
2019-01-03T14:53:28.441Z,53
2019-01-03T14:58:33.800Z,56.5
2019-01-03T15:03:39.683Z,58.9
2019-01-03T15:08:44.689Z,57.4
2019-01-03T15:13:49.752Z,48.9
2019-01-03T15:18:55.539Z,53.6
2019-01-03T15:24:00.819Z,55
2019-01-03T15:29:06.397Z,52.7
2019-01-03T15:34:12.116Z,51
2019-01-03T15:39:17.754Z,38.8
2019-01-03T15:44:22.927Z,54.4
2019-01-03T15:49:28.612Z,48.1
2019-01-03T15:54:34.315Z,45.6
2019-01-03T15:59:40.643Z,51.5
2019-01-03T16:04:46.822Z,57.1
2019-01-03T16:09:52.344Z,57.2
2019-01-03T16:14:57.842Z,46.8
2019-01-03T16:20:03.563Z,55.2
2019-01-03T16:25:10.172Z,55
2019-01-03T16:30:16.450Z,54.6
2019-01-03T16:35:22.772Z,56.4
2019-01-03T16:40:28.104Z,48.6
2019-01-03T16:45:33.565Z,62.2
2019-01-03T16:50:38.448Z,58
2019-01-03T16:55:43.716Z,50.7
2019-01-03T17:00:50.116Z,54.6
2019-01-03T17:05:55.217Z,54.8
2019-01-03T17:11:00.348Z,57
2019-01-03T17:16:05.784Z,62.8
2019-01-03T17:21:11.056Z,49.5
2019-01-03T17:26:16.176Z,52.6
2019-01-03T17:31:21.707Z,60.8
2019-01-03T17:36:28.213Z,48.1
2019-01-03T17:41:33.590Z,46.6
2019-01-03T17:46:39.027Z,49.4
2019-01-03T17:51:44.720Z,55.5
2019-01-03T17:56:50.316Z,55.3
2019-01-03T18:01:56.393Z,52.6
2019-01-03T18:07:01.484Z,51.8
2019-01-03T18:12:06.655Z,42.7
2019-01-03T18:17:14.733Z,53.7
2019-01-03T18:22:19.799Z,52.5
2019-01-03T18:27:24.871Z,53
2019-01-03T18:32:29.902Z,47.3
2019-01-03T18:37:36.024Z,47.6
2019-01-03T18:42:41.368Z,49.3
2019-01-03T18:47:47.037Z,46.8
2019-01-03T18:52:53.040Z,45
2019-01-03T18:57:58.114Z,46.3
2019-01-03T19:03:03.639Z,47.8
2019-01-03T19:08:08.943Z,47.8
2019-01-03T19:12:59.853Z,37.7
2019-01-03T19:18:05.216Z,39.2
2019-01-03T19:23:10.763Z,36.8
2019-01-03T19:33:21.422Z,17.5
2019-01-03T19:38:27.517Z,22.7
2019-01-03T19:43:33.034Z,24.9
2019-01-03T19:48:37.969Z,25.2
2019-01-03T19:53:44.764Z,25.8
2019-01-03T19:58:51.051Z,28.3
2019-01-03T20:03:55.818Z,28.2
2019-01-03T20:09:00.874Z,28.6
2019-01-03T20:14:06.536Z,29.2
2019-01-03T20:19:12.036Z,29.9
2019-01-03T20:24:20.022Z,30
2019-01-03T20:29:25.593Z,30
2019-01-03T20:34:31.938Z,31.1
2019-01-03T20:39:37.407Z,31.1
2019-01-03T20:44:42.302Z,32.1
2019-01-03T20:49:49.286Z,33
2019-01-03T20:54:59.049Z,33
2019-01-03T21:00:05.253Z,33
2019-01-03T21:05:05.385Z,33.8
2019-01-03T21:10:10.871Z,33
2019-01-03T21:15:18.558Z,33
2019-01-03T21:20:24.092Z,33
2019-01-03T21:25:29.536Z,32.9
2019-01-03T21:30:36.631Z,32.9
2019-01-03T21:35:44.350Z,33
2019-01-03T21:40:50.587Z,33.4
2019-01-03T21:45:56.192Z,33.6
2019-01-03T21:51:02.003Z,33.7
2019-01-03T21:56:07.284Z,33.8
2019-01-03T22:01:12.632Z,34
2019-01-03T22:06:18.188Z,33.9
2019-01-03T22:11:24.034Z,34.1
2019-01-03T22:16:29.525Z,34.3
2019-01-03T22:21:34.730Z,34.4
2019-01-03T22:26:39.553Z,34.2
2019-01-03T22:31:46.425Z,34.3
2019-01-03T22:36:50.321Z,34.2
2019-01-03T22:41:55.435Z,34.2
2019-01-03T22:47:06.052Z,34.2
2019-01-03T22:52:11.952Z,34.1
2019-01-03T22:57:17.345Z,34.2
2019-01-03T23:02:23.071Z,34.3
2019-01-03T23:07:29.903Z,34.4
2019-01-03T23:12:35.861Z,34.3
2019-01-03T23:17:41.220Z,34.3
2019-01-03T23:22:46.445Z,34.3
2019-01-03T23:32:56.077Z,34.6
2019-01-03T23:38:01.572Z,35.1
2019-01-03T23:43:07.383Z,36.1
2019-01-03T23:48:12.490Z,36.9
2019-01-03T23:53:19.205Z,36.9
2019-01-03T23:58:24.740Z,37
